Time;durP1;ratioP1;P1;durP2;ratioP2;P2;SDS_P1;SDS_P2;PMS_P1;PMS_P2;Temp;Humidity;BMP_temperature;BMP_pressure;BME280_temperature;BME280_humidity;BME280_pressure;Samples;Min_cycle;Max_cycle;Signal;HPM_P1;HPM_P2
2022/01/02 00:01:36;;;;;;;0.50;0.50;;;11.10;99.90;;;;;;5148515;27;20052;-84
2022/01/02 00:04:03;;;;;;;0.40;0.40;;;11.10;99.90;;;;;;5115035;28;20114;-83
2022/01/02 00:06:33;;;;;;;0.40;0.40;;;11.10;99.90;;;;;;5114713;28;20043;-84
2022/01/02 00:09:03;;;;;;;0.40;0.40;;;11.10;99.90;;;;;;5113333;28;20105;-84
2022/01/02 00:11:29;;;;;;;0.40;0.40;;;11.10;99.90;;;;;;5114617;28;20150;-85
2022/01/02 00:14:02;;;;;;;0.50;0.50;;;11.10;99.90;;;;;;5114487;28;20538;-84
2022/01/02 00:16:28;;;;;;;0.40;0.40;;;11.00;99.90;;;;;;5114450;28;20050;-84
2022/01/02 00:19:08;;;;;;;0.40;0.40;;;11.00;99.90;;;;;;5114673;28;20039;-85
2022/01/02 00:21:41;;;;;;;0.57;0.57;;;11.00;99.90;;;;;;5114442;28;20100;-86
2022/01/02 00:24:13;;;;;;;0.57;0.57;;;11.00;99.90;;;;;;5114362;28;20043;-84
2022/01/02 00:26:43;;;;;;;0.50;0.50;;;10.90;99.90;;;;;;5114511;28;20479;-85
2022/01/02 00:29:10;;;;;;;0.50;0.50;;;10.90;99.90;;;;;;5115068;28;20046;-84
2022/01/02 00:31:36;;;;;;;0.50;0.50;;;10.90;99.90;;;;;;5113603;28;20088;-85
2022/01/02 00:34:04;;;;;;;0.50;0.50;;;10.90;99.90;;;;;;5113277;28;20092;-85
2022/01/02 00:36:29;;;;;;;0.40;0.40;;;10.90;99.90;;;;;;5114538;28;20282;-84
2022/01/02 00:38:55;;;;;;;0.60;0.60;;;10.90;99.90;;;;;;5147539;27;20036;-85
2022/01/02 00:41:31;;;;;;;4.03;1.70;;;10.80;99.90;;;;;;5114489;28;20044;-85
2022/01/02 00:44:22;;;;;;;0.50;0.50;;;10.80;99.90;;;;;;5113584;28;20055;-83
2022/01/02 00:47:11;;;;;;;18.17;8.23;;;10.80;99.90;;;;;;5114421;28;20051;-86
2022/01/02 00:49:44;;;;;;;0.40;0.40;;;10.80;99.90;;;;;;5114525;28;20060;-86
2022/01/02 00:52:20;;;;;;;0.40;0.40;;;10.90;99.90;;;;;;5096341;28;20052;-86
2022/01/02 00:54:46;;;;;;;0.93;0.93;;;10.80;99.90;;;;;;5114353;28;20107;-84
2022/01/02 00:57:18;;;;;;;0.40;0.40;;;10.80;99.90;;;;;;5113173;28;20467;-85
2022/01/02 01:00:07;;;;;;;4.07;1.10;;;10.80;99.90;;;;;;5114240;28;20048;-88
2022/01/02 01:02:37;;;;;;;0.43;0.43;;;10.80;99.90;;;;;;5102801;28;20107;-83
2022/01/02 01:05:05;;;;;;;1.48;1.38;;;10.80;99.90;;;;;;5114714;28;20047;-86
2022/01/02 01:07:32;;;;;;;0.40;0.40;;;10.80;99.90;;;;;;5114251;28;20067;-87
2022/01/02 01:09:59;;;;;;;2.17;1.80;;;10.80;99.90;;;;;;5114099;28;20100;-87
2022/01/02 01:12:25;;;;;;;0.40;0.40;;;10.80;99.90;;;;;;5114051;28;20073;-85
2022/01/02 01:14:52;;;;;;;2.93;2.33;;;10.80;99.90;;;;;;5114103;28;20039;-86
2022/01/02 01:17:17;;;;;;;0.30;0.30;;;10.70;99.90;;;;;;5096631;28;20048;-85
2022/01/02 01:19:44;;;;;;;1.08;1.08;;;10.80;99.90;;;;;;5096204;28;20043;-85
2022/01/02 01:22:10;;;;;;;0.40;0.40;;;10.70;99.90;;;;;;5116171;28;20039;-86
2022/01/02 01:24:36;;;;;;;0.40;0.40;;;10.70;99.90;;;;;;5100121;28;20097;-86
2022/01/02 01:27:07;;;;;;;1.17;1.07;;;10.70;99.90;;;;;;5116644;28;20044;-85
2022/01/02 01:29:34;;;;;;;0.40;0.40;;;10.80;99.90;;;;;;5116988;28;20051;-88
2022/01/02 01:32:04;;;;;;;;;;;10.70;99.90;;;;;;5116883;28;20036;-87
2022/01/02 01:34:29;;;;;;;0.80;0.80;;;10.70;99.90;;;;;;5117706;28;19926;-87
2022/01/02 01:36:55;;;;;;;0.40;0.40;;;10.80;99.90;;;;;;5082865;28;20126;-88
2022/01/02 01:39:20;;;;;;;0.50;0.50;;;10.80;99.90;;;;;;5116761;28;20088;-86
2022/01/02 01:41:47;;;;;;;3.00;1.33;;;10.80;99.90;;;;;;5116284;28;20043;-87
2022/01/02 01:46:39;;;;;;;0.43;0.43;;;10.70;99.90;;;;;;5117581;28;20044;-86
2022/01/02 01:49:20;;;;;;;0.40;0.40;;;10.70;99.90;;;;;;5116447;28;20058;-88
2022/01/02 01:51:47;;;;;;;1.05;0.93;;;10.70;99.90;;;;;;5116216;28;20044;-88
2022/01/02 01:54:13;;;;;;;0.60;0.60;;;10.70;99.90;;;;;;5099671;28;20381;-88
2022/01/02 01:56:39;;;;;;;0.63;0.63;;;10.70;99.90;;;;;;5116681;28;20031;-85
2022/01/02 01:59:05;;;;;;;1.15;1.08;;;10.70;99.90;;;;;;5117757;28;20426;-87
2022/01/02 02:01:32;;;;;;;0.40;0.40;;;10.70;99.90;;;;;;5133464;27;20415;-87
2022/01/02 02:03:58;;;;;;;0.75;0.75;;;10.70;99.90;;;;;;5117280;28;20043;-85
2022/01/02 02:06:24;;;;;;;1.77;1.67;;;10.70;99.90;;;;;;5116220;28;20046;-86
2022/01/02 02:08:52;;;;;;;0.73;0.73;;;10.70;99.90;;;;;;5099475;28;20131;-85
2022/01/02 02:11:20;;;;;;;0.60;0.60;;;10.70;99.90;;;;;;5117798;28;20043;-87
2022/01/02 02:13:46;;;;;;;0.50;0.50;;;10.70;99.90;;;;;;5127867;28;20043;-83
2022/01/02 02:16:12;;;;;;;0.40;0.40;;;10.70;99.90;;;;;;5135082;28;20047;-86
2022/01/02 02:18:38;;;;;;;0.77;0.77;;;10.70;99.90;;;;;;5120871;28;20089;-86
2022/01/02 02:21:04;;;;;;;0.40;0.40;;;10.70;99.90;;;;;;5116507;28;20281;-85
2022/01/02 02:23:30;;;;;;;0.50;0.50;;;10.70;99.90;;;;;;5115901;28;20047;-87
2022/01/02 02:25:55;;;;;;;0.50;0.50;;;10.70;99.90;;;;;;5117125;28;20044;-86
2022/01/02 02:28:26;;;;;;;0.60;0.60;;;10.70;99.90;;;;;;5150239;27;20043;-85
2022/01/02 02:30:52;;;;;;;0.40;0.40;;;12.70;99.90;;;;;;5133602;27;20043;-87
2022/01/02 02:33:19;;;;;;;0.50;0.50;;;10.70;99.90;;;;;;5115417;28;20464;-85
2022/01/02 02:35:46;;;;;;;1.25;1.15;;;10.70;99.90;;;;;;5114885;28;20052;-85
2022/01/02 02:38:14;;;;;;;0.50;0.50;;;10.70;99.90;;;;;;5115241;28;20058;-85
2022/01/02 02:40:41;;;;;;;1.60;0.82;;;10.70;99.90;;;;;;5115362;28;20487;-85
2022/01/02 02:43:26;;;;;;;0.70;0.70;;;10.70;99.90;;;;;;5115297;28;20544;-87
2022/01/02 02:51:49;;;;;;;0.57;0.57;;;10.70;99.90;;;;;;5115095;28;20479;-86
2022/01/02 02:54:25;;;;;;;1.15;1.15;;;10.70;99.90;;;;;;5115596;28;20109;-86
2022/01/02 02:57:00;;;;;;;0.73;0.73;;;10.70;99.90;;;;;;5098011;28;20360;-84
2022/01/02 02:59:31;;;;;;;0.82;0.82;;;10.70;99.90;;;;;;5114993;28;20436;-89
2022/01/02 03:01:58;;;;;;;1.65;1.55;;;10.70;99.90;;;;;;5115305;28;20066;-87
2022/01/02 03:04:24;;;;;;;5.75;1.20;;;10.70;99.90;;;;;;5115098;28;20093;-85
2022/01/02 03:06:50;;;;;;;1.67;1.13;;;10.70;99.90;;;;;;5114744;28;20046;-87
2022/01/02 03:09:24;;;;;;;0.60;0.60;;;10.70;99.90;;;;;;5131809;27;20044;-87
2022/01/02 03:11:50;;;;;;;0.57;0.57;;;10.60;99.90;;;;;;5116240;28;20083;-85
2022/01/02 03:14:15;;;;;;;0.50;0.50;;;10.60;99.90;;;;;;5148894;27;20513;-86
2022/01/02 03:16:41;;;;;;;0.55;0.52;;;11.30;99.90;;;;;;5114711;28;20077;-86
2022/01/02 03:19:07;;;;;;;0.40;0.40;;;10.60;99.90;;;;;;5115475;28;20078;-85
2022/01/02 03:21:33;;;;;;;0.40;0.40;;;10.60;99.90;;;;;;5114766;28;20102;-88
2022/01/02 03:23:59;;;;;;;1.20;0.60;;;10.70;99.90;;;;;;5115465;28;20082;-88
2022/01/02 03:26:25;;;;;;;0.55;0.55;;;11.00;99.90;;;;;;5131304;27;20062;-89
2022/01/02 03:28:50;;;;;;;0.40;0.40;;;10.60;99.90;;;;;;5114401;28;20487;-87
2022/01/02 03:31:16;;;;;;;0.65;0.65;;;10.60;99.90;;;;;;5148764;27;20047;-85
2022/01/02 03:33:42;;;;;;;0.60;0.60;;;10.70;99.90;;;;;;5115376;28;20130;-87
2022/01/02 03:36:07;;;;;;;0.68;0.68;;;10.70;99.90;;;;;;5115288;28;20047;-86
2022/01/02 03:38:33;;;;;;;0.50;0.50;;;10.70;99.90;;;;;;5148681;27;20043;-86
2022/01/02 03:40:59;;;;;;;0.40;0.40;;;10.70;99.90;;;;;;5097078;28;20051;-88
2022/01/02 03:43:25;;;;;;;0.40;0.40;;;10.70;99.90;;;;;;5114373;28;20048;-87
2022/01/02 03:45:51;;;;;;;0.57;0.53;;;10.70;99.90;;;;;;5130632;27;20044;-87
2022/01/02 03:48:17;;;;;;;0.52;0.52;;;10.70;99.90;;;;;;5114132;28;20039;-85
2022/01/02 03:50:43;;;;;;;0.50;0.50;;;10.70;99.90;;;;;;5115106;28;20059;-87
2022/01/02 03:53:08;;;;;;;0.40;0.40;;;10.70;99.90;;;;;;5115259;28;20051;-87
2022/01/02 03:55:35;;;;;;;0.50;0.50;;;10.70;99.90;;;;;;5113694;28;20476;-87
2022/01/02 03:58:01;;;;;;;0.50;0.50;;;10.70;99.90;;;;;;5113703;28;20048;-86
2022/01/02 04:00:27;;;;;;;0.40;0.40;;;10.70;99.90;;;;;;5118693;28;20157;-86
2022/01/02 04:02:52;;;;;;;0.50;0.50;;;10.70;99.90;;;;;;5118147;28;20063;-84
2022/01/02 04:05:18;;;;;;;0.67;0.67;;;10.80;99.90;;;;;;5115081;28;20098;-87
2022/01/02 04:07:44;;;;;;;0.47;0.47;;;10.70;99.90;;;;;;5114818;28;20044;-89
2022/01/02 04:10:12;;;;;;;0.40;0.40;;;10.70;99.90;;;;;;5113334;28;20484;-85
2022/01/02 04:12:38;;;;;;;0.63;0.63;;;10.70;99.90;;;;;;5114589;28;20053;-85
2022/01/02 04:15:08;;;;;;;0.60;0.60;;;10.70;99.90;;;;;;5096642;28;20054;-88
2022/01/02 04:17:34;;;;;;;0.63;0.63;;;10.70;99.90;;;;;;5114594;28;20040;-87
2022/01/02 04:20:01;;;;;;;0.50;0.50;;;10.70;99.90;;;;;;5113820;28;20056;-88
2022/01/02 04:22:27;;;;;;;0.43;0.43;;;10.70;99.90;;;;;;5113888;28;20084;-84
2022/01/02 04:24:52;;;;;;;0.40;0.40;;;10.60;99.90;;;;;;5114480;28;20391;-84
2022/01/02 04:27:19;;;;;;;0.90;0.85;;;10.70;99.90;;;;;;5114688;28;20508;-79
2022/01/02 04:29:46;;;;;;;0.40;0.40;;;10.70;99.90;;;;;;5114740;28;20395;-85
2022/01/02 04:32:12;;;;;;;0.40;0.40;;;10.70;99.90;;;;;;5114699;28;20044;-88
2022/01/02 04:34:38;;;;;;;1.05;0.93;;;10.70;99.90;;;;;;5114867;28;20070;-85
2022/01/02 04:37:05;;;;;;;0.40;0.40;;;10.70;99.90;;;;;;5113473;28;20475;-87
2022/01/02 04:39:31;;;;;;;1.38;1.30;;;10.70;99.90;;;;;;5114911;28;20120;-86
2022/01/02 04:41:57;;;;;;;1.95;1.15;;;10.70;99.90;;;;;;5115627;28;20127;-84
2022/01/02 04:44:22;;;;;;;0.50;0.50;;;10.70;99.90;;;;;;5117743;28;20079;-83
2022/01/02 04:46:48;;;;;;;0.90;0.90;;;10.70;99.90;;;;;;5120719;28;20042;-82
2022/01/02 04:49:13;;;;;;;0.70;0.60;;;10.70;99.90;;;;;;5118889;28;20039;-84
2022/01/02 04:51:39;;;;;;;0.50;0.50;;;10.70;99.90;;;;;;5119472;28;20085;-85
2022/01/02 04:54:04;;;;;;;0.98;0.93;;;10.80;99.90;;;;;;5118882;28;20044;-84
2022/01/02 04:56:30;;;;;;;0.40;0.40;;;10.80;99.90;;;;;;5116399;28;20491;-82
2022/01/02 04:58:55;;;;;;;1.40;0.87;;;10.80;99.90;;;;;;5118833;28;20039;-86
2022/01/02 05:01:21;;;;;;;0.70;0.70;;;10.80;99.90;;;;;;5152475;27;20040;-85
2022/01/02 05:03:47;;;;;;;0.53;0.53;;;10.80;99.90;;;;;;5121466;28;20048;-81
2022/01/02 05:06:12;;;;;;;0.40;0.40;;;10.80;99.90;;;;;;5130960;28;20441;-81
2022/01/02 05:08:39;;;;;;;0.88;0.88;;;10.80;99.90;;;;;;5121248;28;20108;-86
2022/01/02 05:11:05;;;;;;;;;;;10.90;99.90;;;;;;5119274;28;20048;-87
2022/01/02 05:13:30;;;;;;;1.55;1.30;;;10.90;99.90;;;;;;5118867;28;19994;-88
2022/01/02 05:15:56;;;;;;;0.40;0.40;;;10.90;99.90;;;;;;5119035;28;20075;-89
2022/01/02 05:18:22;;;;;;;0.68;0.68;;;10.90;99.90;;;;;;5117724;28;20150;-84
2022/01/02 05:20:47;;;;;;;0.50;0.50;;;10.90;99.90;;;;;;5118703;28;20496;-85
2022/01/02 05:23:14;;;;;;;1.13;1.07;;;10.90;99.90;;;;;;5118341;28;20075;-86
2022/01/02 05:25:39;;;;;;;0.52;0.52;;;10.90;99.90;;;;;;5118587;28;20118;-88
2022/01/02 05:28:05;;;;;;;0.40;0.40;;;10.90;99.90;;;;;;5117148;28;20173;-84
2022/01/02 05:30:31;;;;;;;1.77;1.60;;;11.00;99.90;;;;;;5118346;28;20609;-87
2022/01/02 05:32:56;;;;;;;0.38;0.38;;;11.00;99.90;;;;;;5119136;28;20043;-85
2022/01/02 05:35:22;;;;;;;1.70;1.13;;;11.00;99.90;;;;;;5153074;27;20094;-83
2022/01/02 05:37:47;;;;;;;0.40;0.40;;;11.00;99.90;;;;;;5151929;27;20502;-88
2022/01/02 05:40:13;;;;;;;0.40;0.40;;;11.10;99.90;;;;;;5118763;28;20048;-86
2022/01/02 05:42:38;;;;;;;0.40;0.40;;;11.10;99.90;;;;;;5117494;28;20048;-84
2022/01/02 05:45:04;;;;;;;0.50;0.50;;;11.10;99.90;;;;;;5118531;28;20054;-83
2022/01/02 05:47:30;;;;;;;1.60;1.17;;;11.00;99.90;;;;;;5116828;28;20043;-84
2022/01/02 05:49:55;;;;;;;0.43;0.43;;;11.10;99.90;;;;;;5116992;28;20036;-86
2022/01/02 05:52:21;;;;;;;0.68;0.68;;;11.10;99.90;;;;;;5118138;28;20109;-83
2022/01/02 05:54:46;;;;;;;0.40;0.40;;;11.20;99.90;;;;;;5150918;27;20043;-88
2022/01/02 05:57:12;;;;;;;0.40;0.40;;;11.20;99.90;;;;;;5099883;28;20051;-85
2022/01/02 05:59:39;;;;;;;0.40;0.40;;;11.20;99.90;;;;;;5117799;28;20131;-82
2022/01/02 06:02:05;;;;;;;0.60;0.60;;;11.30;99.90;;;;;;5118136;28;20372;-84
2022/01/02 06:04:30;;;;;;;0.40;0.40;;;11.40;99.90;;;;;;5116491;28;20042;-87
2022/01/02 06:06:56;;;;;;;0.50;0.50;;;11.40;99.90;;;;;;5116799;28;20185;-82
2022/01/02 06:09:21;;;;;;;0.75;0.73;;;11.50;99.90;;;;;;5116224;28;20510;-85
2022/01/02 06:11:47;;;;;;;13.10;1.27;;;11.50;99.90;;;;;;5117103;28;20055;-84
2022/01/02 06:14:13;;;;;;;0.40;0.40;;;11.60;99.90;;;;;;5117035;28;20040;-84
2022/01/02 06:16:38;;;;;;;0.65;0.65;;;11.60;99.90;;;;;;5117250;28;20044;-86
2022/01/02 06:19:04;;;;;;;0.40;0.40;;;11.60;99.90;;;;;;5150668;27;20079;-89
2022/01/02 06:21:29;;;;;;;0.40;0.40;;;11.60;99.90;;;;;;5115972;28;20048;-87
2022/01/02 06:23:55;;;;;;;0.77;0.77;;;11.70;99.90;;;;;;5150262;27;20039;-84
2022/01/02 06:26:20;;;;;;;0.50;0.50;;;11.60;99.90;;;;;;5116637;28;20455;-87
2022/01/02 06:28:46;;;;;;;1.08;0.77;;;11.60;99.90;;;;;;5116916;28;20039;-85
2022/01/02 06:31:12;;;;;;;0.57;0.57;;;11.60;99.90;;;;;;5116903;28;20043;-83
2022/01/02 06:33:38;;;;;;;0.40;0.40;;;11.60;99.90;;;;;;5116184;28;20051;-83
2022/01/02 06:36:03;;;;;;;0.87;0.70;;;11.60;99.90;;;;;;5116755;28;20478;-85
2022/01/02 06:38:29;;;;;;;0.50;0.50;;;11.60;99.90;;;;;;5115326;28;20051;-85
2022/01/02 06:40:55;;;;;;;0.40;0.40;;;11.60;99.90;;;;;;5116606;28;20039;-86
2022/01/02 06:43:20;;;;;;;0.40;0.40;;;11.60;99.90;;;;;;5116863;28;20137;-84
2022/01/02 06:45:46;;;;;;;0.73;0.73;;;11.60;99.90;;;;;;5115897;28;20047;-86
2022/01/02 06:48:12;;;;;;;0.40;0.40;;;11.60;99.90;;;;;;5116876;28;20047;-85
2022/01/02 06:50:39;;;;;;;0.47;0.47;;;11.60;99.90;;;;;;5119440;28;20054;-83
2022/01/02 06:53:05;;;;;;;0.90;0.63;;;11.60;99.90;;;;;;5115551;28;20058;-88
2022/01/02 06:55:31;;;;;;;0.40;0.40;;;11.50;99.90;;;;;;5117111;28;20047;-84
2022/01/02 06:57:56;;;;;;;0.50;0.50;;;11.50;99.90;;;;;;5115506;28;20471;-85
2022/01/02 07:00:22;;;;;;;0.40;0.40;;;11.50;99.90;;;;;;5138057;27;20051;-83
2022/01/02 07:02:47;;;;;;;0.43;0.43;;;11.50;99.90;;;;;;5115877;28;20069;-85
2022/01/02 07:05:13;;;;;;;1.30;1.07;;;11.50;99.90;;;;;;5115818;28;20043;-84
2022/01/02 07:07:43;;;;;;;0.57;0.52;;;11.50;99.90;;;;;;5114964;28;20043;-84
2022/01/02 07:10:10;;;;;;;0.40;0.40;;;11.50;99.90;;;;;;5137441;27;20040;-85
2022/01/02 07:12:36;;;;;;;;;;;11.50;99.90;;;;;;5114758;28;20575;-85
2022/01/02 07:15:06;;;;;;;0.70;0.70;;;11.50;99.90;;;;;;5113724;28;19996;-83
2022/01/02 07:17:32;;;;;;;0.40;0.40;;;11.40;99.90;;;;;;5113817;28;20118;-84
2022/01/02 07:19:58;;;;;;;0.50;0.50;;;11.40;99.90;;;;;;5141365;27;20140;-84
2022/01/02 07:22:23;;;;;;;0.50;0.50;;;11.40;99.90;;;;;;5114248;28;20032;-86
2022/01/02 07:24:51;;;;;;;0.75;0.75;;;11.40;99.90;;;;;;5113896;28;20122;-83
2022/01/02 07:27:20;;;;;;;0.40;0.40;;;11.40;99.90;;;;;;5130779;27;20038;-84
2022/01/02 07:29:51;;;;;;;0.60;0.60;;;11.30;99.90;;;;;;5114983;28;20047;-83
2022/01/02 07:32:17;;;;;;;0.40;0.40;;;11.30;99.90;;;;;;5097091;28;20047;-83
2022/01/02 07:34:43;;;;;;;0.68;0.68;;;11.30;99.90;;;;;;5113904;28;20130;-84
2022/01/02 07:37:10;;;;;;;0.40;0.40;;;11.30;99.90;;;;;;5113947;28;20472;-81
2022/01/02 07:39:36;;;;;;;;;;;11.30;99.90;;;;;;5110652;28;20085;-83
2022/01/02 07:42:02;;;;;;;0.40;0.40;;;11.40;99.90;;;;;;5096938;28;19927;-88
2022/01/02 07:44:27;;;;;;;0.50;0.50;;;11.40;99.90;;;;;;5113999;28;20035;-86
2022/01/02 07:46:53;;;;;;;0.40;0.40;;;11.40;99.90;;;;;;5113476;28;20450;-87
2022/01/02 07:49:19;;;;;;;0.55;0.55;;;11.40;99.90;;;;;;5114009;28;20093;-84
2022/01/02 07:51:44;;;;;;;0.45;0.45;;;11.40;99.90;;;;;;5114803;28;20055;-83
2022/01/02 07:54:12;;;;;;;1.63;1.53;;;11.40;99.90;;;;;;5114981;28;20049;-84
2022/01/02 07:56:38;;;;;;;0.40;0.40;;;11.40;99.90;;;;;;5118826;28;20048;-84
2022/01/02 07:59:03;;;;;;;0.40;0.40;;;11.30;99.90;;;;;;5118205;28;20062;-83
2022/01/02 08:01:29;;;;;;;0.40;0.40;;;11.40;99.90;;;;;;5115251;28;20507;-82
2022/01/02 08:03:55;;;;;;;0.40;0.40;;;11.30;99.90;;;;;;5114414;28;20491;-84
2022/01/02 08:06:20;;;;;;;0.40;0.40;;;11.30;99.90;;;;;;5114872;28;20181;-83
2022/01/02 08:08:46;;;;;;;0.40;0.40;;;11.40;99.90;;;;;;5115121;28;20113;-84
2022/01/02 08:11:15;;;;;;;0.40;0.40;;;11.30;99.90;;;;;;5114858;28;20487;-82
2022/01/02 08:13:41;;;;;;;0.50;0.50;;;11.30;99.90;;;;;;5114812;28;20051;-84
2022/01/02 08:16:06;;;;;;;0.40;0.40;;;11.30;99.90;;;;;;5113727;28;20130;-84
2022/01/02 08:18:32;;;;;;;0.40;0.40;;;11.30;99.90;;;;;;5114583;28;20112;-85
2022/01/02 08:20:58;;;;;;;0.40;0.40;;;11.30;99.90;;;;;;5130858;27;20054;-83
2022/01/02 08:23:23;;;;;;;0.40;0.40;;;11.30;99.90;;;;;;5114579;28;20471;-85
2022/01/02 08:25:49;;;;;;;0.63;0.63;;;11.30;99.90;;;;;;5114890;28;20043;-86
2022/01/02 08:28:15;;;;;;;0.40;0.40;;;11.30;99.90;;;;;;5114277;28;20047;-85
2022/01/02 08:30:43;;;;;;;0.40;0.40;;;11.30;99.90;;;;;;5114726;28;20127;-84
2022/01/02 08:33:10;;;;;;;0.50;0.50;;;11.20;99.90;;;;;;5114616;28;20042;-84
2022/01/02 08:35:37;;;;;;;0.40;0.40;;;11.20;99.90;;;;;;5114554;28;20039;-86
2022/01/02 08:38:03;;;;;;;1.00;0.90;;;11.20;99.90;;;;;;5115036;28;20507;-84
2022/01/02 08:40:29;;;;;;;0.67;0.67;;;11.20;99.90;;;;;;5115114;28;20062;-84
2022/01/02 08:42:55;;;;;;;1.03;1.00;;;11.20;99.90;;;;;;5148157;27;20498;-87
2022/01/02 08:45:20;;;;;;;0.50;0.50;;;11.20;99.90;;;;;;5115492;28;20047;-84
2022/01/02 08:47:46;;;;;;;0.83;0.80;;;11.20;99.90;;;;;;5116721;28;20054;-81
2022/01/02 08:50:11;;;;;;;0.40;0.40;;;11.20;99.90;;;;;;5114552;28;20403;-83
2022/01/02 08:52:37;;;;;;;0.50;0.50;;;11.20;99.90;;;;;;5097302;28;20059;-88
2022/01/02 08:55:04;;;;;;;0.40;0.40;;;11.10;99.90;;;;;;5149147;27;20054;-86
2022/01/02 08:57:29;;;;;;;0.60;0.60;;;11.10;99.90;;;;;;5114684;28;20048;-88
2022/01/02 08:59:55;;;;;;;0.37;0.37;;;11.20;99.90;;;;;;5145513;27;20048;-86
2022/01/02 09:02:20;;;;;;;0.40;0.40;;;11.20;99.90;;;;;;5095919;28;20502;-87
2022/01/02 09:04:46;;;;;;;0.45;0.45;;;11.20;99.90;;;;;;5095961;28;20411;-86
2022/01/02 09:07:12;;;;;;;0.40;0.40;;;11.20;99.90;;;;;;5147039;27;20421;-87
2022/01/02 09:09:37;;;;;;;0.40;0.40;;;11.40;99.90;;;;;;5096022;28;20498;-86
2022/01/02 09:12:04;;;;;;;0.40;0.40;;;11.20;99.90;;;;;;5112884;28;20488;-87
2022/01/02 09:14:29;;;;;;;0.40;0.40;;;11.20;99.90;;;;;;5113370;28;20157;-90
2022/01/02 09:16:55;;;;;;;0.40;0.40;;;11.30;99.90;;;;;;5147190;27;20043;-86
2022/01/02 09:19:21;;;;;;;0.40;0.40;;;11.20;99.90;;;;;;5147180;27;20044;-87
2022/01/02 09:21:46;;;;;;;0.40;0.40;;;11.20;99.90;;;;;;5147049;27;20092;-86
2022/01/02 09:24:12;;;;;;;0.40;0.40;;;11.70;99.90;;;;;;5096007;28;20051;-83
2022/01/02 09:26:37;;;;;;;1.90;1.47;;;11.40;99.90;;;;;;5113221;28;20061;-88
2022/01/02 09:29:04;;;;;;;0.50;0.50;;;11.20;99.90;;;;;;5148197;27;20043;-91
2022/01/02 09:31:29;;;;;;;0.40;0.40;;;11.20;99.90;;;;;;5129799;28;20048;-84
2022/01/02 09:33:55;;;;;;;0.40;0.40;;;11.20;99.90;;;;;;5112252;28;20123;-86
2022/01/02 09:36:20;;;;;;;0.43;0.43;;;11.20;99.90;;;;;;5095456;28;20434;-84
2022/01/02 09:38:47;;;;;;;0.40;0.40;;;11.20;99.90;;;;;;5113248;28;20089;-85
2022/01/02 09:41:13;;;;;;;0.60;0.60;;;11.20;99.90;;;;;;5112843;28;20083;-85
2022/01/02 09:43:39;;;;;;;0.43;0.43;;;11.20;99.90;;;;;;5099700;28;20078;-92
2022/01/02 09:46:06;;;;;;;0.40;0.40;;;11.20;99.90;;;;;;5099983;28;20380;-86
2022/01/02 09:48:31;;;;;;;0.40;0.40;;;11.20;99.90;;;;;;5116837;28;20075;-85
2022/01/02 09:50:57;;;;;;;0.65;0.65;;;11.10;99.90;;;;;;5116265;28;20093;-87
2022/01/02 09:53:24;;;;;;;0.40;0.40;;;11.20;99.90;;;;;;5100165;28;20080;-86
2022/01/02 09:55:51;;;;;;;0.40;0.40;;;11.20;99.90;;;;;;5117166;28;20096;-84
2022/01/02 09:58:17;;;;;;;1.60;1.35;;;11.50;99.90;;;;;;5100469;28;20196;-90
2022/01/02 10:00:45;;;;;;;0.40;0.40;;;11.20;99.90;;;;;;5116631;28;20542;-85
2022/01/02 10:03:11;;;;;;;0.98;0.98;;;11.20;99.90;;;;;;5115655;28;20039;-84
2022/01/02 10:05:57;;;;;;;0.40;0.40;;;11.70;99.90;;;;;;5115676;28;20051;-89
2022/01/02 10:08:25;;;;;;;2.75;0.77;;;11.30;99.90;;;;;;5113887;28;20107;-86
2022/01/02 10:10:59;;;;;;;0.40;0.40;;;11.40;99.90;;;;;;5116175;28;20039;-85
2022/01/02 10:13:50;;;;;;;0.50;0.50;;;11.20;99.90;;;;;;5118238;28;20040;-88
2022/01/02 10:16:22;;;;;;;0.55;0.55;;;11.30;99.90;;;;;;5116432;28;20048;-82
2022/01/02 10:18:49;;;;;;;0.80;0.80;;;11.30;99.90;;;;;;5116826;28;20047;-86
2022/01/02 10:21:26;;;;;;;;;;;11.40;99.90;;;;;;5118140;28;20062;-88
2022/01/02 10:24:09;;;;;;;0.40;0.40;;;11.40;99.90;;;;;;5117372;28;19924;-85
2022/01/02 10:26:35;;;;;;;0.40;0.40;;;11.50;99.90;;;;;;5119710;28;20039;-85
2022/01/02 10:29:13;;;;;;;0.50;0.50;;;11.60;99.90;;;;;;5119601;28;20395;-82
2022/01/02 10:31:39;;;;;;;0.77;0.77;;;11.60;99.90;;;;;;5119629;28;20035;-89
2022/01/02 10:34:05;;;;;;;0.40;0.40;;;11.60;99.90;;;;;;5119615;28;20466;-84
2022/01/02 10:36:37;;;;;;;0.32;0.32;;;11.60;99.90;;;;;;5120953;28;20044;-84
2022/01/02 10:39:12;;;;;;;0.55;0.55;;;11.60;99.90;;;;;;5120019;28;20047;-84
2022/01/02 10:41:44;;;;;;;0.45;0.45;;;11.60;99.90;;;;;;5115634;28;20050;-84
2022/01/02 10:44:22;;;;;;;0.40;0.40;;;11.60;99.90;;;;;;5116333;28;20059;-83
2022/01/02 10:47:09;;;;;;;0.50;0.50;;;11.70;99.90;;;;;;5127947;28;20043;-85
2022/01/02 10:50:04;;;;;;;0.40;0.40;;;11.70;99.90;;;;;;5101507;28;20043;-84
2022/01/02 10:52:38;;;;;;;0.40;0.40;;;11.80;99.90;;;;;;5116616;28;20067;-83
2022/01/02 10:55:14;;;;;;;0.55;0.55;;;11.80;99.90;;;;;;5115400;28;20039;-82
2022/01/02 10:57:42;;;;;;;0.43;0.43;;;11.80;99.90;;;;;;5116048;28;20104;-87
2022/01/02 11:00:10;;;;;;;0.50;0.50;;;11.80;99.90;;;;;;5098043;28;20463;-84
2022/01/02 11:02:36;;;;;;;0.40;0.40;;;11.80;99.90;;;;;;5114879;28;20506;-83
2022/01/02 11:05:10;;;;;;;0.40;0.40;;;11.80;99.90;;;;;;5116531;28;20043;-86
2022/01/02 11:07:50;;;;;;;0.40;0.40;;;11.90;99.90;;;;;;5115228;28;20047;-86
2022/01/02 11:10:21;;;;;;;0.60;0.60;;;11.90;99.90;;;;;;5115916;28;20054;-86
2022/01/02 11:12:48;;;;;;;2.85;1.52;;;11.90;99.90;;;;;;5115469;28;20050;-82
2022/01/02 11:15:15;;;;;;;;;;;11.90;99.90;;;;;;5119392;28;20035;-81
2022/01/02 11:17:41;;;;;;;0.50;0.50;;;12.20;99.90;;;;;;5116478;28;19919;-84
2022/01/02 11:20:10;;;;;;;0.50;0.50;;;11.90;99.90;;;;;;5115830;28;20130;-84
2022/01/02 11:22:52;;;;;;;0.57;0.57;;;11.90;99.90;;;;;;5115623;28;20043;-84
2022/01/02 11:25:55;;;;;;;0.65;0.52;;;11.90;99.90;;;;;;5114350;28;20044;-85
2022/01/02 11:28:31;;;;;;;0.52;0.52;;;11.80;99.90;;;;;;5106706;28;20143;-84
2022/01/02 11:30:57;;;;;;;0.60;0.60;;;11.80;99.90;;;;;;5114902;28;20035;-86
2022/01/02 11:33:34;;;;;;;0.40;0.40;;;11.80;99.90;;;;;;5098383;28;20044;-82
2022/01/02 11:36:21;;;;;;;1.05;0.95;;;11.80;99.90;;;;;;5117136;28;20373;-85
2022/01/02 11:39:01;;;;;;;0.40;0.40;;;11.80;99.90;;;;;;5113789;28;20517;-86
2022/01/02 11:41:33;;;;;;;0.70;0.70;;;11.80;99.90;;;;;;5115689;28;20090;-88
2022/01/02 11:44:00;;;;;;;0.77;0.70;;;11.80;99.90;;;;;;5115455;28;20084;-80
2022/01/02 11:46:27;;;;;;;;;;;11.80;99.90;;;;;;5115298;28;20044;-83
2022/01/02 11:49:05;;;;;;;0.40;0.40;;;11.90;99.90;;;;;;5114980;28;19919;-83
2022/01/02 11:51:49;;;;;;;;;;;11.80;99.90;;;;;;5115395;28;20090;-87
2022/01/02 11:54:33;;;;;;;0.60;0.60;;;11.80;99.90;;;;;;5114880;28;20365;-87
2022/01/02 11:57:15;;;;;;;0.65;0.65;;;11.80;99.90;;;;;;5114984;28;20047;-84
2022/01/02 11:59:45;;;;;;;1.17;1.10;;;11.80;99.90;;;;;;5115124;28;20083;-85
2022/01/02 12:02:25;;;;;;;0.63;0.63;;;11.80;99.90;;;;;;5114468;28;20055;-83
2022/01/02 12:07:34;;;;;;;0.40;0.40;;;11.80;99.90;;;;;;5113981;28;20048;-84
2022/01/02 12:10:18;;;;;;;0.50;0.50;;;11.80;99.90;;;;;;5114804;28;20048;-86
2022/01/02 12:13:06;;;;;;;0.40;0.40;;;11.80;99.90;;;;;;5114651;28;20043;-85
2022/01/02 12:15:31;;;;;;;0.45;0.45;;;11.80;99.90;;;;;;5114597;28;20052;-87
2022/01/02 12:18:19;;;;;;;0.50;0.50;;;11.80;99.90;;;;;;5113187;28;20427;-87
2022/01/02 12:20:51;;;;;;;2.58;2.38;;;11.80;99.90;;;;;;5114240;28;20047;-86
2022/01/02 12:23:35;;;;;;;0.60;0.60;;;11.80;99.90;;;;;;5114183;28;20070;-86
2022/01/02 12:26:06;;;;;;;0.40;0.40;;;11.80;99.90;;;;;;5113327;28;20069;-87
2022/01/02 12:29:19;;;;;;;0.40;0.40;;;11.80;99.90;;;;;;5113118;28;20048;-87
2022/01/02 12:31:40;;;;;;;0.70;0.70;;;11.70;99.90;;;;;;5110204;28;20454;-86
2022/01/02 12:34:17;;;;;;;0.40;0.40;;;11.80;99.90;;;;;;5113143;28;20040;-87
2022/01/02 12:36:45;;;;;;;0.35;0.35;;;11.80;99.90;;;;;;5113918;28;20055;-86
2022/01/02 12:39:13;;;;;;;0.60;0.60;;;11.80;99.90;;;;;;5113935;28;20050;-87
2022/01/02 12:41:41;;;;;;;0.50;0.50;;;11.80;99.90;;;;;;5113286;28;20539;-88
2022/01/02 12:44:10;;;;;;;0.75;0.75;;;11.80;99.90;;;;;;5096296;28;20040;-88
2022/01/02 12:46:43;;;;;;;0.75;0.50;;;11.90;99.90;;;;;;5096020;28;20036;-86
2022/01/02 12:49:12;;;;;;;1.60;1.50;;;11.80;99.90;;;;;;5113460;28;20043;-86
2022/01/02 12:51:42;;;;;;;0.80;0.80;;;11.80;99.90;;;;;;5112795;28;20050;-87
2022/01/02 12:54:13;;;;;;;0.95;0.95;;;11.80;99.90;;;;;;5113145;28;20044;-87
2022/01/02 12:56:50;;;;;;;0.45;0.45;;;11.80;99.90;;;;;;5113243;28;20082;-86
2022/01/02 12:59:19;;;;;;;3.25;1.20;;;11.80;99.90;;;;;;5113142;28;20399;-88
2022/01/02 13:01:59;;;;;;;0.50;0.50;;;11.80;99.90;;;;;;5112802;28;20062;-89
2022/01/02 13:04:34;;;;;;;0.40;0.40;;;11.80;99.90;;;;;;5096343;28;20044;-88
2022/01/02 13:07:02;;;;;;;0.40;0.40;;;11.90;99.90;;;;;;5111888;28;20032;-87